Time;durP1;ratioP1;P1;durP2;ratioP2;P2;SDS_P1;SDS_P2;PMS_P1;PMS_P2;Temp;Humidity;BMP_temperature;BMP_pressure;BME280_temperature;BME280_humidity;BME280_pressure;Samples;Min_cycle;Max_cycle;Signal;HPM_P1;HPM_P2
2022/10/16 00:01:22;;;;;;;9.75;2.00;;;;;;;-143.48;70.36;78204.53;4997397;28;20124;-76
2022/10/16 00:03:48;;;;;;;5.35;1.77;;;;;;;-143.48;70.02;78192.63;5014473;28;20034;-75
2022/10/16 00:06:15;;;;;;;6.68;2.00;;;;;;;-143.48;69.75;78194.63;4997178;28;20075;-75
2022/10/16 00:08:40;;;;;;;10.40;2.67;;;;;;;-143.48;69.54;78200.56;5014987;28;20457;-76
2022/10/16 00:11:09;;;;;;;7.20;2.00;;;;;;;-143.48;69.39;78194.63;5014951;28;20076;-75
2022/10/16 00:13:37;;;;;;;6.63;1.80;;;;;;;-143.48;69.01;78194.63;5014789;28;20512;-75
2022/10/16 00:16:03;;;;;;;8.10;2.10;;;;;;;-143.48;68.76;78200.56;5015006;28;20476;-75
2022/10/16 00:18:30;;;;;;;10.27;2.25;;;;;;;-143.48;69.01;78202.56;5014669;28;20037;-75
2022/10/16 00:21:00;;;;;;;6.50;2.00;;;;;;;-143.48;68.82;78206.50;5014821;28;20022;-74
2022/10/16 00:23:26;;;;;;;17.27;2.33;;;;;;;-143.48;68.35;78194.63;5014764;28;20022;-75
2022/10/16 00:25:56;;;;;;;4.30;1.92;;;;;;;-143.48;68.11;78182.72;5014792;28;20465;-75
2022/10/16 00:28:21;;;;;;;6.60;1.65;;;;;;;-143.48;68.45;78186.69;5014680;28;20084;-75
2022/10/16 00:30:46;;;;;;;9.43;2.00;;;;;;;-143.48;68.03;78180.72;5014645;28;20101;-75
2022/10/16 00:33:12;;;;;;;7.20;2.10;;;;;;;-143.48;68.11;78182.72;5014553;28;20477;-75
2022/10/16 00:35:37;;;;;;;4.68;1.73;;;;;;;-143.48;67.61;78174.78;4997207;28;20072;-75
2022/10/16 00:38:02;;;;;;;5.20;1.65;;;;;;;-143.48;67.74;78174.78;5015008;28;20036;-75
2022/10/16 00:40:28;;;;;;;5.28;2.05;;;;;;;-143.48;67.32;78170.81;5014332;28;20030;-75
2022/10/16 00:42:53;;;;;;;6.78;1.90;;;;;;;-143.48;67.41;78166.84;5014483;28;20041;-76
2022/10/16 00:45:18;;;;;;;8.02;2.15;;;;;;;-143.48;67.18;78162.88;4996699;28;20034;-76
2022/10/16 00:47:48;;;;;;;4.10;1.70;;;;;;;-143.48;67.48;78160.91;4996739;28;20133;-76
2022/10/16 00:50:23;;;;;;;6.10;1.95;;;;;;;-143.48;67.21;78166.84;4996775;28;20018;-76
2022/10/16 00:52:50;;;;;;;5.65;1.80;;;;;;;-143.48;67.34;78164.88;5014136;28;20029;-76
2022/10/16 00:55:16;;;;;;;8.15;1.70;;;;;;;-143.48;67.29;78164.88;5014412;28;20029;-76
2022/10/16 00:57:43;;;;;;;10.52;1.88;;;;;;;-143.48;67.18;78162.88;5014303;28;20021;-76
2022/10/16 01:00:10;;;;;;;5.28;1.85;;;;;;;-143.48;67.58;78168.84;5014061;28;20025;-76
2022/10/16 01:02:36;;;;;;;5.40;1.90;;;;;;;-143.48;67.58;78158.91;5012801;28;20116;-76
2022/10/16 01:05:04;;;;;;;4.25;1.63;;;;;;;-143.48;66.87;78149.00;5012799;28;20113;-76
2022/10/16 01:07:58;;;;;;;6.35;1.70;;;;;;;-143.48;66.84;78147.03;5013908;28;20039;-76
2022/10/16 01:10:48;;;;;;;4.85;1.80;;;;;;;-143.48;67.13;78139.09;5010456;28;20042;-76
2022/10/16 01:13:26;;;;;;;8.38;1.70;;;;;;;-143.48;67.54;78152.97;5014051;28;20108;-75
2022/10/16 01:16:15;;;;;;;6.45;1.52;;;;;;;-143.48;66.35;78121.25;4996160;28;20026;-76
2022/10/16 01:18:49;;;;;;;3.50;1.40;;;;;;;-143.48;66.47;78123.22;5012503;28;20021;-76
2022/10/16 01:21:29;;;;;;;5.40;1.50;;;;;;;-143.48;66.75;78127.19;5013723;28;20057;-75
2022/10/16 01:23:57;;;;;;;5.88;1.70;;;;;;;-143.48;67.53;78133.13;4996103;28;20026;-78
2022/10/16 01:26:59;;;;;;;7.53;1.90;;;;;;;-143.48;68.03;78139.09;4996046;28;20080;-75
2022/10/16 01:29:34;;;;;;;2.78;1.65;;;;;;;-143.48;68.65;78139.09;5013637;28;20470;-75
2022/10/16 01:32:10;;;;;;;8.85;1.90;;;;;;;-143.48;68.40;78139.09;5013518;28;20030;-76
2022/10/16 01:34:41;;;;;;;7.45;2.25;;;;;;;-143.48;68.68;78143.06;5012396;28;20113;-75
2022/10/16 01:37:14;;;;;;;5.80;2.40;;;;;;;-143.48;68.51;78135.13;4996081;28;20108;-76
2022/10/16 01:39:42;;;;;;;;;;;;;;;-143.48;68.76;78133.13;5013885;28;20029;-76
2022/10/16 01:42:22;;;;;;;7.90;2.03;;;;;;;-143.48;68.81;78137.09;5012556;28;19989;-75
2022/10/16 01:44:50;;;;;;;6.55;1.90;;;;;;;-143.48;69.06;78133.13;5012696;28;20156;-76
2022/10/16 01:47:18;;;;;;;8.13;2.10;;;;;;;-143.48;69.75;78131.16;5013254;28;20054;-76
2022/10/16 01:49:45;;;;;;;3.78;1.70;;;;;;;-143.48;70.31;78139.09;5012405;28;20029;-75
2022/10/16 01:52:16;;;;;;;9.25;2.38;;;;;;;-143.48;70.98;78141.06;5013855;28;20393;-76
2022/10/16 01:54:45;;;;;;;5.50;1.88;;;;;;;-143.48;70.76;78135.13;4995626;28;20033;-75
2022/10/16 01:57:13;;;;;;;3.22;2.00;;;;;;;-143.48;71.68;78154.94;5013378;28;20029;-76
2022/10/16 01:59:43;;;;;;;4.95;2.20;;;;;;;-143.48;71.77;78158.91;5013567;28;20032;-75
2022/10/16 02:02:11;;;;;;;4.97;2.17;;;;;;;-143.48;72.28;78164.88;5013275;28;20393;-75
2022/10/16 02:04:42;;;;;;;5.60;2.17;;;;;;;-143.48;72.61;78172.81;5012906;28;20029;-75
2022/10/16 02:07:08;;;;;;;6.10;2.05;;;;;;;-143.48;72.80;78170.81;5013506;28;20100;-76
2022/10/16 02:09:35;;;;;;;5.18;2.20;;;;;;;-143.48;73.14;78182.72;5013327;28;20113;-76
2022/10/16 02:12:11;;;;;;;5.43;2.10;;;;;;;-143.48;73.90;78198.59;4994510;28;20014;-75
2022/10/16 02:14:38;;;;;;;5.32;2.20;;;;;;;-143.48;74.28;78200.56;5012543;28;20030;-75
2022/10/16 02:17:14;;;;;;;6.07;2.08;;;;;;;-143.48;74.62;78204.53;5011989;28;20049;-75
2022/10/16 02:19:40;;;;;;;5.90;2.42;;;;;;;-143.48;74.75;78212.47;5013273;28;20069;-76
2022/10/16 02:22:08;;;;;;;4.72;2.10;;;;;;;-143.48;75.10;78218.41;5013048;28;20036;-75
2022/10/16 02:24:39;;;;;;;4.95;2.40;;;;;;;-143.48;75.21;78228.31;5011962;28;20092;-75
2022/10/16 02:27:19;;;;;;;8.35;2.50;;;;;;;-143.48;75.63;78238.25;5011923;28;20076;-75
2022/10/16 02:29:50;;;;;;;6.35;2.50;;;;;;;-143.48;75.66;78242.22;5014999;28;20045;-75
2022/10/16 02:32:22;;;;;;;4.07;2.20;;;;;;;-143.48;75.93;78250.16;5014902;28;20040;-75
2022/10/16 02:34:49;;;;;;;4.70;2.30;;;;;;;-143.48;75.92;78246.19;5015017;28;20137;-75
2022/10/16 02:37:17;;;;;;;3.70;2.17;;;;;;;-143.48;75.99;78252.13;5015105;28;20412;-75
2022/10/16 02:39:42;;;;;;;8.88;2.42;;;;;;;-143.48;75.79;78250.16;5014579;28;20044;-75
2022/10/16 02:42:15;;;;;;;6.22;2.40;;;;;;;-143.48;76.16;78260.06;5014630;28;20022;-75
2022/10/16 02:44:40;;;;;;;5.45;2.92;;;;;;;-143.48;76.06;78260.06;5016470;28;20389;-75
2022/10/16 02:47:05;;;;;;;4.70;2.30;;;;;;;-143.48;76.09;78262.03;5016681;28;20067;-75
2022/10/16 02:49:30;;;;;;;6.28;2.60;;;;;;;-143.48;75.98;78252.13;5016648;28;20041;-75
2022/10/16 02:51:56;;;;;;;3.97;2.50;;;;;;;-143.48;76.20;78266.00;5016589;28;20029;-74
2022/10/16 02:54:21;;;;;;;4.38;2.50;;;;;;;-143.48;76.43;78258.06;4998944;28;20033;-76
2022/10/16 02:56:46;;;;;;;6.35;2.45;;;;;;;-143.48;76.50;78266.00;5015433;28;20022;-77
2022/10/16 02:59:12;;;;;;;6.80;2.70;;;;;;;-143.48;76.12;78252.13;5015320;28;20024;-75
2022/10/16 03:01:37;;;;;;;4.85;2.65;;;;;;;-143.48;76.54;78254.09;5016363;28;20156;-75
2022/10/16 03:04:02;;;;;;;6.53;2.47;;;;;;;-143.48;76.43;78258.06;5016257;28;20068;-74
2022/10/16 03:06:28;;;;;;;6.80;2.40;;;;;;;-143.48;76.42;78252.13;5016186;28;20022;-75
2022/10/16 03:08:53;;;;;;;7.55;2.60;;;;;;;-143.48;76.43;78258.06;5016042;28;20123;-75
2022/10/16 03:11:18;;;;;;;6.88;2.45;;;;;;;-143.48;76.56;78250.16;5016105;28;20071;-75
2022/10/16 03:13:44;;;;;;;8.50;2.35;;;;;;;-143.48;76.83;78240.22;5016067;28;20022;-74
2022/10/16 03:16:09;;;;;;;5.40;2.30;;;;;;;-143.48;76.63;78250.16;5016249;28;20055;-75
2022/10/16 03:18:34;;;;;;;6.95;2.40;;;;;;;-143.48;76.99;78244.19;5015979;28;20030;-75
2022/10/16 03:21:00;;;;;;;3.50;2.15;;;;;;;-143.48;76.80;78252.13;5015856;28;20072;-75
2022/10/16 03:23:25;;;;;;;5.97;2.20;;;;;;;-143.48;76.85;78254.09;4998353;28;20390;-75
2022/10/16 03:25:50;;;;;;;5.90;2.53;;;;;;;-143.48;77.25;78264.03;5015811;28;20025;-75
2022/10/16 03:28:16;;;;;;;6.22;2.05;;;;;;;-143.48;77.46;78269.97;5015698;28;20028;-74
2022/10/16 03:30:43;;;;;;;7.00;2.30;;;;;;;-143.48;77.59;78273.94;5015793;28;20017;-75
2022/10/16 03:33:08;;;;;;;5.20;2.40;;;;;;;-143.48;77.64;78275.94;5015820;28;20473;-74
2022/10/16 03:35:34;;;;;;;5.15;2.03;;;;;;;-143.48;77.35;78269.97;5015737;28;20033;-75
2022/10/16 03:37:59;;;;;;;8.10;2.30;;;;;;;-143.48;76.97;78269.97;5015973;28;20026;-75
2022/10/16 03:40:24;;;;;;;4.57;2.20;;;;;;;-143.48;77.09;78281.88;5014228;28;20493;-75
2022/10/16 03:42:50;;;;;;;4.68;2.13;;;;;;;-143.48;77.59;78285.84;5014087;28;20048;-75
2022/10/16 03:45:15;;;;;;;5.80;2.10;;;;;;;-143.48;77.47;78287.81;4997940;28;20148;-74
2022/10/16 03:47:41;;;;;;;8.80;2.60;;;;;;;-143.48;77.78;78299.72;5015319;28;20123;-75
2022/10/16 03:50:07;;;;;;;5.25;1.95;;;;;;;-143.48;77.79;78289.81;5015531;28;20045;-74
2022/10/16 03:52:32;;;;;;;7.05;2.38;;;;;;;-143.48;77.96;78287.81;4997644;28;20026;-75
2022/10/16 03:54:58;;;;;;;7.22;3.40;;;;;;;-143.48;77.80;78291.78;4997680;28;20029;-75
2022/10/16 03:57:23;;;;;;;4.90;2.30;;;;;;;-143.48;77.78;78283.84;5015180;28;20165;-76
2022/10/16 03:59:48;;;;;;;4.32;2.10;;;;;;;-143.48;78.09;78289.81;5015333;28;20030;-76
2022/10/16 04:02:14;;;;;;;5.18;2.40;;;;;;;-143.48;78.16;78295.75;4997548;28;20080;-75
2022/10/16 04:04:39;;;;;;;4.07;2.00;;;;;;;-143.48;79.04;78311.63;4997527;28;20018;-75
2022/10/16 04:07:04;;;;;;;6.15;2.20;;;;;;;-143.48;78.60;78305.66;5015313;28;20054;-75
2022/10/16 04:09:30;;;;;;;5.07;1.92;;;;;;;-143.48;78.70;78307.66;5015010;28;20401;-75
2022/10/16 04:11:55;;;;;;;7.28;2.08;;;;;;;-143.48;78.78;78309.63;5014842;28;20064;-75
2022/10/16 04:14:20;;;;;;;8.18;2.25;;;;;;;-143.48;78.72;78301.72;5014918;28;20442;-76
2022/10/16 04:16:46;;;;;;;7.60;2.33;;;;;;;-143.48;78.46;78303.69;5015048;28;20033;-75
2022/10/16 04:19:11;;;;;;;4.03;2.00;;;;;;;-143.48;78.64;78305.66;5014920;28;20108;-75
2022/10/16 04:21:37;;;;;;;3.53;1.70;;;;;;;-143.48;78.93;78309.63;5014798;28;20509;-77
2022/10/16 04:24:03;;;;;;;4.38;1.88;;;;;;;-143.48;78.51;78305.66;4997398;28;20026;-75
2022/10/16 04:26:29;;;;;;;4.72;2.28;;;;;;;-143.48;78.80;78315.59;5014708;28;20101;-75
2022/10/16 04:28:55;;;;;;;8.40;2.15;;;;;;;-143.48;78.80;78315.59;5014776;28;20025;-76
2022/10/16 04:31:20;;;;;;;4.43;2.20;;;;;;;-143.48;78.94;78325.50;5014590;28;20432;-75
2022/10/16 04:33:46;;;;;;;6.00;2.10;;;;;;;-143.48;79.40;78337.41;5014705;28;20076;-76
2022/10/16 04:36:11;;;;;;;5.18;2.10;;;;;;;-143.48;79.52;78331.44;5014464;28;20084;-75
2022/10/16 04:38:37;;;;;;;4.57;1.92;;;;;;;-143.48;79.55;78333.44;5016393;28;20392;-78
2022/10/16 04:41:04;;;;;;;6.32;2.20;;;;;;;-143.48;79.29;78343.34;5003542;28;20018;-77
2022/10/16 04:43:29;;;;;;;3.13;1.95;;;;;;;-143.48;79.64;78343.34;5015723;28;20116;-76
2022/10/16 04:45:56;;;;;;;5.18;2.05;;;;;;;-143.48;79.64;78349.31;5017314;28;20032;-77
2022/10/16 04:48:21;;;;;;;4.47;2.08;;;;;;;-143.48;79.83;78347.31;4999089;28;20150;-74
2022/10/16 04:50:47;;;;;;;8.40;2.00;;;;;;;-143.48;79.85;78357.22;5010295;28;20466;-76
2022/10/16 04:53:12;;;;;;;4.85;1.88;;;;;;;-143.48;80.09;78367.16;4994861;28;20026;-75
2022/10/16 04:55:38;;;;;;;4.03;2.10;;;;;;;-143.48;80.45;78365.16;4995037;28;20068;-75
2022/10/16 04:58:04;;;;;;;5.63;2.13;;;;;;;-143.48;80.66;78365.16;4994735;28;20085;-75
2022/10/16 05:00:29;;;;;;;3.78;2.20;;;;;;;-143.48;81.22;78385.00;4993372;28;20436;-72
2022/10/16 05:02:55;;;;;;;5.88;2.03;;;;;;;-143.48;80.95;78381.03;4995013;28;20022;-71
2022/10/16 05:05:20;;;;;;;5.70;1.92;;;;;;;-143.48;81.36;78385.00;4994575;28;20128;-71
2022/10/16 05:07:47;;;;;;;5.10;2.05;;;;;;;-143.48;81.22;78385.00;4994837;28;20477;-71
2022/10/16 05:10:12;;;;;;;4.53;2.33;;;;;;;-143.48;81.03;78390.94;4993137;28;20019;-71
2022/10/16 05:12:37;;;;;;;4.32;2.22;;;;;;;-143.48;81.26;78392.94;4992980;28;20080;-71
2022/10/16 05:15:04;;;;;;;4.95;2.35;;;;;;;-143.48;81.05;78388.97;4994318;28;20478;-71
2022/10/16 05:17:29;;;;;;;6.47;2.08;;;;;;;-143.48;81.17;78400.88;4994500;28;20468;-71
2022/10/16 05:19:54;;;;;;;4.60;2.17;;;;;;;-143.48;81.00;78400.88;4992911;28;20121;-73
2022/10/16 05:22:20;;;;;;;5.20;2.33;;;;;;;-143.48;81.48;78400.88;4994058;28;20026;-71
2022/10/16 05:24:45;;;;;;;5.57;2.00;;;;;;;-143.48;81.26;78400.88;4994085;28;20358;-71
2022/10/16 05:27:11;;;;;;;3.85;2.15;;;;;;;-143.48;81.55;78404.84;4994129;28;20053;-71
2022/10/16 05:29:37;;;;;;;6.68;2.25;;;;;;;-143.48;81.71;78412.75;4994110;28;20129;-71
2022/10/16 05:32:02;;;;;;;4.28;2.10;;;;;;;-143.48;81.80;78418.72;4997802;28;20058;-72
2022/10/16 05:34:28;;;;;;;5.05;2.30;;;;;;;-143.48;81.76;78420.69;4994095;28;20030;-71
2022/10/16 05:36:53;;;;;;;12.05;2.28;;;;;;;-143.48;81.65;78416.72;4994131;28;20022;-71
2022/10/16 05:39:18;;;;;;;5.75;2.08;;;;;;;-143.48;81.99;78430.63;4993871;28;20065;-72
2022/10/16 05:41:44;;;;;;;6.70;2.40;;;;;;;-143.48;81.76;78422.69;4993797;28;20056;-71
2022/10/16 05:44:09;;;;;;;6.45;2.20;;;;;;;-143.48;81.81;78424.66;4994235;28;20496;-71
2022/10/16 05:46:35;;;;;;;5.57;2.10;;;;;;;-143.48;81.79;78420.69;4992406;28;20045;-71
2022/10/16 05:49:00;;;;;;;5.28;2.10;;;;;;;-143.48;81.90;78428.63;4994086;28;20085;-72
2022/10/16 05:51:25;;;;;;;4.55;2.25;;;;;;;-143.48;82.36;78424.66;4993854;28;20029;-71
2022/10/16 05:53:52;;;;;;;6.10;2.45;;;;;;;-143.48;83.35;78448.47;4993680;28;20108;-71
2022/10/16 05:56:18;;;;;;;5.82;2.17;;;;;;;-143.48;84.19;78452.44;4992534;28;20109;-71
2022/10/16 05:58:46;;;;;;;4.72;2.40;;;;;;;-143.48;84.60;78466.31;4995668;28;20110;-71
2022/10/16 06:01:17;;;;;;;5.68;2.25;;;;;;;-143.48;85.55;78476.22;4995097;28;20027;-72
2022/10/16 06:03:43;;;;;;;4.60;2.53;;;;;;;-143.48;86.28;78474.25;5011610;28;20026;-75
2022/10/16 06:06:14;;;;;;;5.78;2.40;;;;;;;-143.48;86.55;78474.25;4999354;28;20052;-71
2022/10/16 06:08:41;;;;;;;7.82;2.67;;;;;;;-143.48;86.69;78482.19;5013849;28;20495;-73
2022/10/16 06:11:12;;;;;;;6.50;2.58;;;;;;;-143.48;87.65;78488.13;4998396;28;20470;-72
2022/10/16 06:13:38;;;;;;;8.55;2.85;;;;;;;-143.48;87.83;78480.19;4997591;28;20054;-72
2022/10/16 06:16:05;;;;;;;7.30;2.50;;;;;;;-143.48;88.22;78492.09;4999166;28;20045;-74
2022/10/16 06:18:31;;;;;;;9.32;2.65;;;;;;;-143.48;88.56;78500.03;4999998;28;20034;-72
2022/10/16 06:20:56;;;;;;;5.88;2.40;;;;;;;-143.48;88.81;78498.03;4998304;28;20504;-71
2022/10/16 06:23:23;;;;;;;8.30;2.42;;;;;;;-143.48;89.30;78504.00;4997563;28;20546;-71
2022/10/16 06:25:48;;;;;;;6.30;2.80;;;;;;;-143.48;89.81;78500.03;5016287;28;20421;-72
2022/10/16 06:28:14;;;;;;;10.70;2.80;;;;;;;-143.48;90.04;78492.09;4997325;28;20113;-71
2022/10/16 06:30:40;;;;;;;6.03;2.80;;;;;;;-143.48;89.75;78494.06;4997206;28;20042;-72
2022/10/16 06:33:05;;;;;;;6.97;2.70;;;;;;;-143.48;89.51;78500.03;4996063;28;20027;-72
2022/10/16 06:35:31;;;;;;;6.55;2.90;;;;;;;-143.48;90.01;78502.00;4995808;28;20030;-72
2022/10/16 06:37:57;;;;;;;10.45;2.67;;;;;;;-143.48;89.86;78527.78;4997004;28;20030;-72
2022/10/16 06:40:22;;;;;;;6.15;3.00;;;;;;;-143.48;90.19;78515.91;4996816;28;20026;-72
2022/10/16 06:42:48;;;;;;;8.23;3.17;;;;;;;-143.48;89.86;78513.91;4996901;28;20113;-72
2022/10/16 06:45:13;;;;;;;6.45;3.10;;;;;;;-143.48;89.92;78525.81;4996214;28;20478;-73
2022/10/16 06:47:38;;;;;;;6.20;3.17;;;;;;;-143.48;90.14;78523.81;5010735;28;20060;-72
2022/10/16 06:50:06;;;;;;;4.72;2.90;;;;;;;-143.48;89.97;78517.88;5014712;28;20017;-72
2022/10/16 06:52:32;;;;;;;7.88;2.92;;;;;;;-143.48;89.33;78504.00;5014619;28;20555;-72
2022/10/16 06:54:57;;;;;;;5.47;2.70;;;;;;;-143.48;89.21;78494.06;5014391;28;20034;-71
2022/10/16 06:57:22;;;;;;;6.32;3.05;;;;;;;-143.48;88.84;78502.00;5014948;28;20025;-71
2022/10/16 06:59:48;;;;;;;6.35;2.67;;;;;;;-143.48;88.87;78498.03;4997644;28;20018;-71
2022/10/16 07:02:13;;;;;;;6.25;2.60;;;;;;;-143.48;88.15;78505.97;5015141;28;20378;-72
2022/10/16 07:04:38;;;;;;;6.30;2.45;;;;;;;-143.48;88.25;78496.06;5015886;28;20188;-72
2022/10/16 07:07:04;;;;;;;6.95;2.50;;;;;;;-143.48;87.60;78496.06;5015240;28;20457;-72
2022/10/16 07:09:29;;;;;;;4.57;2.50;;;;;;;-143.48;87.08;78504.00;4998750;28;20037;-72
2022/10/16 07:11:54;;;;;;;5.68;2.55;;;;;;;-143.48;86.51;78500.03;5016051;28;20010;-72
2022/10/16 07:14:21;;;;;;;12.80;2.50;;;;;;;-143.48;85.64;78492.09;5016161;28;20079;-73
2022/10/16 07:16:47;;;;;;;5.90;2.60;;;;;;;-143.48;85.00;78484.16;5016349;28;20047;-73
2022/10/16 07:19:14;;;;;;;7.28;2.40;;;;;;;-143.48;84.99;78490.13;5016065;28;20388;-72
2022/10/16 07:21:40;;;;;;;7.10;2.33;;;;;;;-143.48;84.43;78484.16;5016019;28;20021;-72
2022/10/16 07:24:10;;;;;;;6.28;2.22;;;;;;;-143.48;84.05;78478.22;4998530;28;20183;-74
2022/10/16 07:26:38;;;;;;;6.82;2.25;;;;;;;-143.48;83.17;78482.19;5016158;28;20026;-72
2022/10/16 07:29:05;;;;;;;4.15;2.20;;;;;;;-143.48;82.35;78472.25;5015242;28;20022;-72
2022/10/16 07:31:30;;;;;;;5.75;2.25;;;;;;;-143.48;81.42;78462.34;5016214;28;20026;-72
2022/10/16 07:33:58;;;;;;;8.23;2.10;;;;;;;-143.48;80.38;78450.44;5016252;28;20397;-72
2022/10/16 07:36:23;;;;;;;4.50;1.80;;;;;;;-143.48;79.30;78446.47;5016242;28;20061;-72
2022/10/16 07:38:49;;;;;;;6.18;1.92;;;;;;;-143.48;79.02;78416.72;5016106;28;20056;-73
2022/10/16 07:41:16;;;;;;;7.45;1.70;;;;;;;-143.48;79.14;78418.72;5016110;28;20121;-72
2022/10/16 07:43:49;;;;;;;5.80;1.98;;;;;;;-143.48;70.79;78194.63;5016161;28;20472;-72
2022/10/16 07:46:16;;;;;;;4.40;1.60;;;;;;;-143.48;67.26;78139.09;5016461;28;20038;-76
2022/10/16 07:48:45;;;;;;;6.30;1.60;;;;;;;-143.48;61.35;77950.69;5018118;28;20041;-76
2022/10/16 07:51:12;;;;;;;5.38;1.77;;;;;;;-143.48;57.01;77851.56;5002083;28;20064;-75
2022/10/16 07:53:37;;;;;;;8.05;1.73;;;;;;;-143.48;58.35;77893.19;5019574;28;20054;-76
2022/10/16 07:56:05;;;;;;;3.05;1.40;;;;;;;-143.48;55.17;77829.75;5019221;28;20030;-76
2022/10/16 07:58:31;;;;;;;4.10;1.73;;;;;;;-143.48;54.61;77788.09;5019797;28;20053;-75
2022/10/16 08:00:57;;;;;;;6.88;1.60;;;;;;;-143.48;52.28;77690.94;5020015;28;20030;-73
2022/10/16 08:03:23;;;;;;;6.43;1.70;;;;;;;-143.48;52.34;77706.78;5019351;28;20032;-77
2022/10/16 08:05:49;;;;;;;4.05;1.60;;;;;;;-143.48;51.35;77659.22;5019540;28;20504;-78
2022/10/16 08:08:15;;;;;;;4.70;1.70;;;;;;;-143.48;55.12;77897.16;5017964;28;20116;-73
2022/10/16 08:10:41;;;;;;;5.10;1.45;;;;;;;-143.48;53.23;77756.38;5016542;28;20540;-73
2022/10/16 08:13:06;;;;;;;5.00;1.50;;;;;;;-143.48;52.48;77694.91;5016644;28;20018;-72
2022/10/16 08:15:32;;;;;;;4.28;1.75;;;;;;;-143.48;53.11;77736.53;5015889;28;20043;-73
2022/10/16 08:18:02;;;;;;;5.25;1.83;;;;;;;-143.48;54.50;77807.94;5015785;28;20060;-73
2022/10/16 08:20:29;;;;;;;4.00;1.58;;;;;;;-143.48;52.64;77700.84;5015929;28;20523;-73
2022/10/16 08:22:55;;;;;;;5.30;1.63;;;;;;;-143.48;52.32;77744.47;5015436;28;20034;-72
2022/10/16 08:25:22;;;;;;;4.03;1.67;;;;;;;-143.48;51.40;77679.03;5014804;28;20099;-73
2022/10/16 08:27:47;;;;;;;6.47;1.70;;;;;;;-143.48;52.30;77708.78;5013909;28;20030;-73
2022/10/16 08:30:13;;;;;;;5.32;1.75;;;;;;;-143.48;50.22;77643.34;5013576;28;20497;-73
2022/10/16 08:32:41;;;;;;;6.32;1.83;;;;;;;-143.48;50.57;77631.44;5014762;28;20504;-73
2022/10/16 08:35:06;;;;;;;4.68;1.60;;;;;;;-143.48;47.73;77490.66;5016831;28;20469;-73
2022/10/16 08:37:32;;;;;;;9.25;1.90;;;;;;;-143.48;47.28;77484.72;5014908;28;20034;-72
2022/10/16 08:39:58;;;;;;;6.25;1.90;;;;;;;-143.48;45.67;77453.00;5014693;28;20449;-71
2022/10/16 08:42:32;;;;;;;7.97;1.90;;;;;;;-143.48;45.56;77451.00;5013363;28;20060;-73
2022/10/16 08:45:23;;;;;;;5.80;1.75;;;;;;;-143.48;45.87;77462.91;5014576;28;20037;-73
2022/10/16 08:48:07;;;;;;;7.50;2.08;;;;;;;-143.48;46.29;77520.41;5014398;28;20500;-73
2022/10/16 08:50:37;;;;;;;5.45;1.90;;;;;;;-143.48;46.94;77522.38;5014235;28;20107;-73
2022/10/16 08:53:04;;;;;;;5.00;1.70;;;;;;;-143.48;49.39;77615.59;5014273;28;20101;-72
2022/10/16 08:55:46;;;;;;;5.15;1.80;;;;;;;-143.48;46.70;77552.13;5014279;28;20025;-71
2022/10/16 08:58:14;;;;;;;8.20;1.83;;;;;;;-143.48;46.72;77554.13;5013383;28;20111;-72
2022/10/16 09:00:41;;;;;;;8.65;2.00;;;;;;;-143.48;47.18;77575.94;5013136;28;20032;-73
2022/10/16 09:03:44;;;;;;;9.48;1.92;;;;;;;-143.48;44.11;77419.28;5013470;28;20030;-73
2022/10/16 09:06:42;;;;;;;6.22;1.77;;;;;;;-143.48;44.80;77486.69;5013385;28;20033;-72
2022/10/16 09:09:32;;;;;;;7.82;2.13;;;;;;;-143.48;44.98;77504.53;5010021;28;20041;-72
2022/10/16 09:12:17;;;;;;;7.68;1.92;;;;;;;-143.48;43.92;77417.31;5013524;28;20029;-72
2022/10/16 09:14:48;;;;;;;6.65;2.30;;;;;;;-143.48;46.18;77568.00;5012482;28;20026;-72
2022/10/16 09:17:31;;;;;;;7.40;2.83;;;;;;;-143.48;51.95;77845.59;5013662;28;20030;-72
2022/10/16 09:20:27;;;;;;;7.93;2.03;;;;;;;-143.48;55.16;77970.53;5013562;28;20025;-72
2022/10/16 09:23:09;;;;;;;7.38;1.95;;;;;;;-143.48;50.16;77649.28;5013413;28;20041;-73
2022/10/16 09:25:38;;;;;;;9.50;2.67;;;;;;;-143.48;54.59;77944.75;5013423;28;20065;-72
2022/10/16 09:28:04;;;;;;;6.80;2.20;;;;;;;-143.48;50.39;77665.16;5013747;28;20040;-72
2022/10/16 09:30:29;;;;;;;7.68;1.83;;;;;;;-143.48;51.27;77782.16;5013593;28;20029;-72
2022/10/16 09:32:58;;;;;;;9.63;2.45;;;;;;;-143.48;49.25;77683.00;5013671;28;20088;-73
2022/10/16 09:35:33;;;;;;;7.78;1.98;;;;;;;-143.48;50.90;77847.59;5013581;28;20038;-73
2022/10/16 09:37:58;;;;;;;9.52;2.15;;;;;;;-143.48;43.54;77389.53;5013553;28;20548;-73
2022/10/16 09:40:30;;;;;;;7.40;2.10;;;;;;;-143.48;47.00;77603.69;5013532;28;20118;-73
2022/10/16 09:43:15;;;;;;;7.68;2.13;;;;;;;-143.48;52.66;77934.84;5013562;28;20044;-72
2022/10/16 09:45:41;;;;;;;9.00;2.13;;;;;;;-143.48;49.66;77671.09;5012012;28;20033;-73
2022/10/16 09:48:19;;;;;;;9.18;2.15;;;;;;;-143.48;46.83;77605.66;4995798;28;20049;-73
2022/10/16 09:50:55;;;;;;;6.82;2.10;;;;;;;-143.48;44.41;77447.03;5013393;28;20045;-72
2022/10/16 09:53:22;;;;;;;10.65;2.03;;;;;;;-143.48;45.78;77579.91;4995778;28;20013;-73
2022/10/16 09:55:52;;;;;;;9.02;2.33;;;;;;;-143.48;42.15;77290.41;5013402;28;20029;-72
2022/10/16 09:58:20;;;;;;;9.38;2.13;;;;;;;-143.48;40.84;77193.25;4995838;28;20068;-72
2022/10/16 10:00:52;;;;;;;16.42;2.40;;;;;;;-143.48;39.09;77155.59;5013175;28;20022;-73
2022/10/16 10:03:39;;;;;;;8.53;2.13;;;;;;;-143.48;39.28;77193.25;5013304;28;20025;-71
2022/10/16 10:06:26;;;;;;;17.67;2.47;;;;;;;-143.48;40.25;77268.59;5013310;28;20768;-71
2022/10/16 10:09:14;;;;;;;12.07;2.20;;;;;;;-143.48;41.50;77381.63;5013302;28;20026;-72
2022/10/16 10:11:49;;;;;;;10.30;2.40;;;;;;;-143.48;43.30;77387.56;5013178;28;20037;-71
2022/10/16 10:14:20;;;;;;;10.80;2.40;;;;;;;-143.48;48.77;77811.88;5013226;28;20389;-73
2022/10/16 10:16:46;;;;;;;11.48;2.25;;;;;;;-143.48;49.82;77839.66;5013094;28;20029;-72
2022/10/16 10:19:16;;;;;;;8.80;2.30;;;;;;;-143.48;47.72;77681.03;5013210;28;20385;-72
2022/10/16 10:21:41;;;;;;;14.75;2.45;;;;;;;-143.48;47.44;77637.41;5013171;28;20109;-72
2022/10/16 10:24:11;;;;;;;10.88;2.20;;;;;;;-143.48;53.42;77974.50;5012093;28;20103;-72
2022/10/16 10:26:38;;;;;;;11.07;2.45;;;;;;;-143.48;51.42;77817.84;5013120;28;20032;-71
2022/10/16 10:29:26;;;;;;;12.63;2.42;;;;;;;-143.48;52.59;77911.03;5013092;28;20389;-72
2022/10/16 10:32:08;;;;;;;10.32;2.40;;;;;;;-143.48;56.35;78071.66;5012996;28;20076;-73
2022/10/16 10:35:07;;;;;;;14.43;2.80;;;;;;;-143.48;57.21;78093.47;5012956;28;20068;-73
2022/10/16 10:38:00;;;;;;;11.65;2.30;;;;;;;-143.48;56.06;78000.28;5010900;28;20413;-73
2022/10/16 10:40:39;;;;;;;;;;;;;;;-143.48;54.33;77918.97;5011962;28;20501;-73
2022/10/16 10:43:42;;;;;;;13.65;2.60;;;;;;;-143.48;51.66;77778.19;5013203;28;19910;-72
2022/10/16 10:46:19;;;;;;;9.63;2.20;;;;;;;-143.48;48.77;77734.56;5011683;28;20050;-73
2022/10/16 10:49:16;;;;;;;12.48;2.58;;;;;;;-143.48;53.53;77885.25;5014165;28;20049;-72
2022/10/16 10:52:02;;;;;;;13.23;2.30;;;;;;;-143.48;54.76;77972.50;5016728;28;20030;-73
2022/10/16 10:54:42;;;;;;;12.90;2.30;;;;;;;-143.48;53.90;78059.75;5016478;28;20033;-73
2022/10/16 10:57:29;;;;;;;9.40;2.30;;;;;;;-143.48;54.71;78065.72;5016383;28;20026;-73
2022/10/16 11:00:00;;;;;;;13.77;2.50;;;;;;;-143.48;54.31;77887.25;5016316;28;20026;-71
2022/10/16 11:02:47;;;;;;;12.45;2.35;;;;;;;-143.48;50.15;77817.84;5016496;28;20026;-72
2022/10/16 11:05:22;;;;;;;9.18;2.15;;;;;;;-143.48;52.84;78026.06;4998806;28;20029;-72
2022/10/16 11:07:58;;;;;;;13.40;2.35;;;;;;;-143.48;53.28;78093.47;5016246;28;20037;-74
2022/10/16 11:10:40;;;;;;;11.07;2.42;;;;;;;-143.48;54.25;78075.63;5016137;28;20022;-72
2022/10/16 11:13:44;;;;;;;10.82;1.90;;;;;;;-143.48;55.68;78147.03;5016132;28;20080;-73
2022/10/16 11:16:22;;;;;;;9.80;2.35;;;;;;;-143.48;49.97;77855.50;5016122;28;20040;-72
2022/10/16 11:19:11;;;;;;;12.27;2.50;;;;;;;-143.48;41.92;77334.03;5016044;28;20037;-73
2022/10/16 11:21:48;;;;;;;15.80;2.83;;;;;;;-143.48;38.29;77179.38;5015836;28;20022;-72
2022/10/16 11:24:23;;;;;;;12.20;2.33;;;;;;;-143.48;37.23;77082.22;5015878;28;20033;-73
2022/10/16 11:26:51;;;;;;;8.15;1.90;;;;;;;-143.48;37.45;77048.53;4998270;28;20029;-73
2022/10/16 11:29:26;;;;;;;8.68;2.08;;;;;;;-143.48;34.47;76985.09;5015864;28;20026;-72